Time;durP1;ratioP1;P1;durP2;ratioP2;P2;SDS_P1;SDS_P2;PMS_P1;PMS_P2;Temp;Humidity;BMP_temperature;BMP_pressure;BME280_temperature;BME280_humidity;BME280_pressure;Samples;Min_cycle;Max_cycle;Signal;HPM_P1;HPM_P2
2023/01/21 00:00:20;;;;;;;8.07;4.73;;;2.60;99.90;;;;;;5065737;28;20315;-71
2023/01/21 00:02:46;;;;;;;6.10;4.60;;;2.70;99.90;;;;;;5090162;28;20505;-71
2023/01/21 00:05:12;;;;;;;4.73;4.20;;;2.70;99.90;;;;;;5079277;28;20417;-71
2023/01/21 00:07:37;;;;;;;4.50;3.30;;;2.70;99.90;;;;;;5084350;28;20214;-71
2023/01/21 00:10:03;;;;;;;5.53;4.73;;;2.60;99.90;;;;;;5083212;28;20245;-71
2023/01/21 00:12:29;;;;;;;5.90;4.20;;;2.60;99.90;;;;;;5078953;28;20231;-71
2023/01/21 00:14:54;;;;;;;5.73;4.10;;;2.60;99.90;;;;;;5063020;28;20234;-71
2023/01/21 00:17:20;;;;;;;7.43;4.27;;;2.60;99.90;;;;;;5061703;28;20215;-71
2023/01/21 00:19:46;;;;;;;5.67;4.20;;;2.60;99.90;;;;;;5052691;28;20235;-71
2023/01/21 00:22:11;;;;;;;5.60;4.30;;;2.60;99.90;;;;;;5071626;28;20212;-71
2023/01/21 00:24:37;;;;;;;7.30;4.73;;;2.60;99.90;;;;;;5052004;28;20242;-71
2023/01/21 00:27:03;;;;;;;9.60;5.03;;;2.60;99.90;;;;;;5081231;27;20232;-71
2023/01/21 00:29:28;;;;;;;5.70;4.63;;;2.60;99.90;;;;;;5069593;28;20203;-71
2023/01/21 00:31:54;;;;;;;7.90;5.80;;;2.60;99.90;;;;;;5070183;28;20215;-70
2023/01/21 00:34:20;;;;;;;11.20;5.67;;;2.50;99.90;;;;;;5066431;28;20216;-71
2023/01/21 00:36:45;;;;;;;9.00;5.10;;;2.50;99.90;;;;;;5067979;28;20213;-71
2023/01/21 00:39:11;;;;;;;7.90;5.97;;;2.50;99.90;;;;;;5071774;28;20261;-71
2023/01/21 00:41:37;;;;;;;7.80;5.40;;;2.50;99.90;;;;;;5086651;28;20222;-71
2023/01/21 00:44:03;;;;;;;8.63;6.10;;;2.50;99.90;;;;;;5084658;28;20214;-71
2023/01/21 00:46:29;;;;;;;8.20;5.43;;;2.50;99.90;;;;;;5079617;28;20227;-71
2023/01/21 00:48:55;;;;;;;8.30;6.03;;;2.50;99.90;;;;;;5074849;28;20810;-71
2023/01/21 00:51:22;;;;;;;7.00;5.10;;;2.50;99.90;;;;;;5095228;28;20472;-71
2023/01/21 00:53:48;;;;;;;8.10;5.10;;;2.60;99.90;;;;;;5108461;28;20236;-71
2023/01/21 00:56:13;;;;;;;7.20;4.90;;;2.50;99.90;;;;;;5096290;28;20956;-71
2023/01/21 00:58:39;;;;;;;9.67;5.80;;;2.50;99.90;;;;;;5072453;28;20694;-71
2023/01/21 01:01:09;;;;;;;9.70;6.13;;;2.50;99.90;;;;;;5070053;28;20248;-71
2023/01/21 01:03:38;;;;;;;11.13;6.40;;;2.50;99.90;;;;;;5065455;28;20293;-71
2023/01/21 01:06:16;;;;;;;8.10;5.33;;;2.50;99.90;;;;;;5082995;28;20471;-71
2023/01/21 01:08:43;;;;;;;12.77;6.30;;;2.50;99.90;;;;;;5064315;28;20459;-70
2023/01/21 01:11:10;;;;;;;11.53;6.00;;;2.50;99.90;;;;;;5086751;28;20984;-71
2023/01/21 01:13:36;;;;;;;8.87;6.70;;;2.50;99.90;;;;;;5065353;28;20450;-71
2023/01/21 01:16:02;;;;;;;8.47;5.37;;;2.50;99.90;;;;;;5076355;28;20452;-71
2023/01/21 01:18:31;;;;;;;6.83;5.20;;;2.50;99.90;;;;;;5088586;28;20448;-70
2023/01/21 01:20:57;;;;;;;10.33;5.93;;;2.50;99.90;;;;;;5082432;28;20452;-71
2023/01/21 01:23:23;;;;;;;9.70;5.70;;;2.50;99.90;;;;;;5087106;28;20460;-71
2023/01/21 01:25:57;;;;;;;10.13;5.87;;;2.50;99.90;;;;;;5078624;28;20217;-71
2023/01/21 01:28:23;;;;;;;8.60;5.40;;;2.50;99.90;;;;;;5085787;28;20544;-71
2023/01/21 01:30:48;;;;;;;7.47;5.57;;;2.50;99.90;;;;;;5084981;28;20528;-71
2023/01/21 01:33:14;;;;;;;11.20;6.00;;;2.50;99.90;;;;;;5099649;28;20220;-70
2023/01/21 01:35:40;;;;;;;11.73;6.10;;;2.50;99.90;;;;;;5094156;28;20761;-69
2023/01/21 01:38:08;;;;;;;8.90;6.03;;;2.50;99.90;;;;;;5111493;27;20210;-71
2023/01/21 01:40:34;;;;;;;15.80;7.90;;;2.50;99.90;;;;;;5075707;28;20456;-71
2023/01/21 01:43:00;;;;;;;12.43;6.83;;;2.40;99.90;;;;;;5090347;28;20491;-71
2023/01/21 01:45:26;;;;;;;9.80;6.73;;;2.40;99.90;;;;;;5078961;28;20488;-71
2023/01/21 01:47:59;;;;;;;13.90;7.33;;;2.40;99.90;;;;;;5075257;28;20691;-71
2023/01/21 01:50:32;;;;;;;10.50;5.97;;;2.40;99.90;;;;;;5071127;28;20987;-71
2023/01/21 01:53:00;;;;;;;8.93;6.17;;;2.30;99.90;;;;;;5093945;28;20548;-70
2023/01/21 01:55:32;;;;;;;8.80;5.67;;;2.30;99.90;;;;;;5088226;28;20507;-71
2023/01/21 01:57:59;;;;;;;9.70;6.13;;;2.30;99.90;;;;;;5064586;28;20449;-71
2023/01/21 02:00:26;;;;;;;12.20;6.80;;;2.30;99.90;;;;;;5054492;28;20481;-71
2023/01/21 02:05:41;;;;;;;13.77;7.67;;;2.30;99.90;;;;;;5084779;28;20931;-70
2023/01/21 02:08:08;;;;;;;13.33;5.90;;;2.30;99.90;;;;;;5069529;28;20509;-70
2023/01/21 02:10:34;;;;;;;12.07;7.00;;;2.30;99.90;;;;;;5064531;28;20445;-70
2023/01/21 02:13:01;;;;;;;15.97;7.20;;;2.30;99.90;;;;;;5081021;28;21063;-71
2023/01/21 02:15:38;;;;;;;9.80;6.80;;;2.30;99.90;;;;;;5071609;28;20830;-71
2023/01/21 02:18:15;;;;;;;12.67;6.97;;;2.30;99.90;;;;;;5068834;28;20517;-70
2023/01/21 02:21:13;;;;;;;8.40;5.77;;;2.30;99.90;;;;;;5085083;28;20460;-70
2023/01/21 02:23:57;;;;;;;14.47;6.50;;;2.30;99.90;;;;;;5044943;28;20467;-72
2023/01/21 02:26:49;;;;;;;11.53;7.73;;;2.30;99.90;;;;;;5073704;28;20563;-71
2023/01/21 02:29:29;;;;;;;11.60;6.90;;;2.30;99.90;;;;;;5063929;28;21054;-71
2023/01/21 02:32:04;;;;;;;13.90;7.03;;;2.30;99.90;;;;;;5069933;28;20498;-70
2023/01/21 02:34:51;;;;;;;13.13;7.73;;;2.30;99.90;;;;;;5087291;28;20456;-71
2023/01/21 02:37:35;;;;;;;10.93;7.40;;;2.30;99.90;;;;;;5087748;28;20456;-71
2023/01/21 02:40:07;;;;;;;10.80;6.73;;;2.20;99.90;;;;;;5082620;28;20460;-71
2023/01/21 02:42:46;;;;;;;16.03;8.70;;;2.20;99.90;;;;;;5070690;28;20448;-71
2023/01/21 02:45:14;;;;;;;13.40;8.93;;;2.30;99.90;;;;;;5087977;28;20448;-71
2023/01/21 02:48:15;;;;;;;16.87;8.20;;;2.30;99.90;;;;;;5083156;28;20459;-71
2023/01/21 02:50:50;;;;;;;11.57;7.43;;;2.30;99.90;;;;;;5088272;28;20456;-71
2023/01/21 02:53:25;;;;;;;17.37;8.90;;;2.30;99.90;;;;;;5080671;28;20518;-71
2023/01/21 02:55:51;;;;;;;14.13;8.37;;;2.30;99.90;;;;;;5071279;28;20444;-71
2023/01/21 02:58:20;;;;;;;15.47;9.60;;;2.30;99.90;;;;;;5086668;28;20453;-71
2023/01/21 03:01:04;;;;;;;19.60;8.57;;;2.30;99.90;;;;;;5089993;28;20451;-70
2023/01/21 03:03:33;;;;;;;17.03;9.07;;;2.30;99.90;;;;;;5088665;28;20872;-71
2023/01/21 03:06:18;;;;;;;12.60;8.40;;;2.30;99.90;;;;;;5099757;28;20489;-68
2023/01/21 03:08:57;;;;;;;12.50;7.57;;;2.30;99.90;;;;;;5091260;28;20997;-70
2023/01/21 03:11:23;;;;;;;11.43;7.33;;;2.30;99.90;;;;;;5087426;28;20487;-72
2023/01/21 03:16:57;;;;;;;18.53;9.20;;;2.20;99.90;;;;;;5087745;28;20470;-70
2023/01/21 03:19:51;;;;;;;12.43;7.30;;;2.20;99.90;;;;;;5072782;28;20468;-70
2023/01/21 03:22:22;;;;;;;19.50;8.70;;;2.20;99.90;;;;;;5081921;28;20544;-71
2023/01/21 03:24:50;;;;;;;11.10;7.00;;;2.20;99.90;;;;;;5087164;28;20464;-71
2023/01/21 03:27:19;;;;;;;13.97;7.57;;;2.10;99.90;;;;;;5079637;28;20558;-71
2023/01/21 03:29:48;;;;;;;17.37;8.10;;;2.10;99.90;;;;;;5096758;28;20443;-70
2023/01/21 03:32:17;;;;;;;16.43;8.63;;;2.10;99.90;;;;;;5070106;28;20452;-71
2023/01/21 03:34:48;;;;;;;16.57;10.17;;;2.10;99.90;;;;;;5071466;28;20456;-71
2023/01/21 03:37:16;;;;;;;15.27;7.93;;;2.10;99.90;;;;;;5084486;28;20877;-71
2023/01/21 03:40:04;;;;;;;21.17;9.80;;;2.00;99.90;;;;;;5078901;28;20866;-70
2023/01/21 03:42:30;;;;;;;15.70;7.77;;;2.00;99.90;;;;;;5081896;28;20463;-71
2023/01/21 03:44:56;;;;;;;15.90;8.20;;;1.90;99.90;;;;;;5091749;28;20487;-71
2023/01/21 03:47:27;;;;;;;14.43;7.43;;;1.90;99.90;;;;;;5102967;28;20445;-71
2023/01/21 03:50:14;;;;;;;15.83;8.77;;;1.90;99.90;;;;;;5089453;28;20456;-70
2023/01/21 03:52:41;;;;;;;21.97;8.70;;;1.90;99.90;;;;;;5076639;28;20469;-69
2023/01/21 03:55:08;;;;;;;18.63;8.67;;;1.90;99.90;;;;;;5098896;28;20510;-71
2023/01/21 03:57:34;;;;;;;23.50;9.43;;;1.90;99.90;;;;;;5073459;28;20482;-70
2023/01/21 04:00:00;;;;;;;25.40;10.43;;;2.00;99.90;;;;;;5090689;28;20464;-71
2023/01/21 04:02:25;;;;;;;17.70;8.83;;;2.00;99.90;;;;;;5090961;28;20227;-71
2023/01/21 04:04:52;;;;;;;13.83;8.47;;;2.00;99.90;;;;;;5086941;28;20230;-71
2023/01/21 04:07:18;;;;;;;13.00;7.70;;;2.00;99.90;;;;;;5077804;28;20229;-71
2023/01/21 04:09:44;;;;;;;14.50;7.90;;;1.90;99.90;;;;;;5087030;28;20453;-71
2023/01/21 04:12:10;;;;;;;16.93;7.20;;;1.90;99.90;;;;;;5089300;28;20598;-71
2023/01/21 04:14:36;;;;;;;16.40;8.00;;;1.90;99.90;;;;;;5091642;28;20440;-71
2023/01/21 04:17:02;;;;;;;13.50;8.13;;;1.80;99.90;;;;;;5091730;28;21013;-70
2023/01/21 04:19:27;;;;;;;17.10;8.30;;;1.70;99.90;;;;;;5088417;28;20223;-71
2023/01/21 04:21:53;;;;;;;19.90;7.97;;;1.70;99.90;;;;;;5088361;28;20238;-70
2023/01/21 04:24:18;;;;;;;14.53;7.13;;;1.70;99.90;;;;;;5092110;28;20591;-71
2023/01/21 04:26:44;;;;;;;17.17;6.67;;;1.80;99.90;;;;;;5089276;28;20225;-71
2023/01/21 04:29:10;;;;;;;13.80;6.47;;;1.80;99.90;;;;;;5075612;28;20226;-70
2023/01/21 04:31:35;;;;;;;14.23;7.83;;;1.80;99.90;;;;;;5091303;28;20222;-70
2023/01/21 04:34:01;;;;;;;12.17;7.20;;;1.80;99.90;;;;;;5085910;28;20218;-71
2023/01/21 04:36:27;;;;;;;15.50;8.10;;;1.70;99.90;;;;;;5073672;28;20222;-71
2023/01/21 04:38:52;;;;;;;14.90;7.03;;;1.80;99.90;;;;;;5090214;28;20292;-71
2023/01/21 04:41:18;;;;;;;12.37;6.67;;;1.80;99.90;;;;;;5072760;28;20218;-71
2023/01/21 04:43:44;;;;;;;10.23;5.80;;;1.80;99.90;;;;;;5091613;28;20218;-71
2023/01/21 04:46:09;;;;;;;13.23;7.70;;;1.80;99.90;;;;;;5084168;28;20218;-71
2023/01/21 04:48:35;;;;;;;12.17;7.10;;;1.80;99.90;;;;;;5085140;28;20302;-71
2023/01/21 04:51:01;;;;;;;14.07;7.90;;;1.80;99.90;;;;;;5068582;28;20224;-71
2023/01/21 04:53:27;;;;;;;12.53;6.10;;;1.90;99.90;;;;;;5066387;28;20216;-70
2023/01/21 04:55:53;;;;;;;14.50;7.23;;;1.90;99.90;;;;;;5080283;28;20264;-71
2023/01/21 04:58:19;;;;;;;14.13;7.47;;;1.90;99.90;;;;;;5085139;28;20717;-71
2023/01/21 05:00:46;;;;;;;18.73;7.83;;;1.90;99.90;;;;;;5073081;28;20322;-71
2023/01/21 05:03:12;;;;;;;17.50;7.63;;;1.90;99.90;;;;;;5056285;28;20540;-71
2023/01/21 05:05:37;;;;;;;22.60;8.37;;;1.90;99.90;;;;;;5072521;28;20222;-70
2023/01/21 05:08:03;;;;;;;15.43;7.60;;;1.90;99.90;;;;;;5086053;28;20290;-70
2023/01/21 05:10:29;;;;;;;11.50;6.53;;;1.90;99.90;;;;;;5085378;28;20690;-70
2023/01/21 05:12:54;;;;;;;15.93;7.03;;;1.80;99.90;;;;;;5089880;28;20242;-69
2023/01/21 05:15:20;;;;;;;15.77;7.40;;;1.90;99.90;;;;;;5090516;28;20686;-69
2023/01/21 05:17:46;;;;;;;17.73;7.30;;;1.90;99.90;;;;;;5090922;28;20211;-70
2023/01/21 05:20:12;;;;;;;8.90;5.77;;;1.90;99.90;;;;;;5091568;28;20830;-69
2023/01/21 05:22:38;;;;;;;12.50;6.27;;;1.80;99.90;;;;;;5088712;28;20242;-70
2023/01/21 05:25:04;;;;;;;12.37;6.43;;;1.90;99.90;;;;;;5080742;28;20246;-70
2023/01/21 05:27:30;;;;;;;11.03;6.07;;;1.80;99.90;;;;;;5083789;28;20494;-71
2023/01/21 05:29:56;;;;;;;14.63;6.47;;;1.80;99.90;;;;;;5070808;28;20449;-69
2023/01/21 05:32:22;;;;;;;18.60;8.80;;;1.80;99.90;;;;;;5085841;28;20250;-71
2023/01/21 05:34:47;;;;;;;16.03;10.23;;;1.80;99.90;;;;;;5079489;28;20245;-71
2023/01/21 05:37:13;;;;;;;19.27;10.67;;;1.80;99.90;;;;;;5059975;28;20452;-72
2023/01/21 05:39:39;;;;;;;16.27;8.70;;;1.80;99.90;;;;;;5085956;28;20648;-71
2023/01/21 05:42:04;;;;;;;14.87;7.70;;;1.80;99.90;;;;;;5081805;28;20238;-71
2023/01/21 05:44:30;;;;;;;16.37;8.50;;;1.80;99.90;;;;;;5067013;28;20226;-70
2023/01/21 05:46:56;;;;;;;14.13;7.00;;;1.70;99.90;;;;;;5102413;28;20275;-71
2023/01/21 05:49:21;;;;;;;12.50;6.80;;;1.70;99.90;;;;;;5083887;28;20215;-71
2023/01/21 05:51:47;;;;;;;10.30;6.10;;;1.70;99.90;;;;;;5080239;28;20329;-71
2023/01/21 05:54:13;;;;;;;16.77;6.63;;;1.70;99.90;;;;;;5087910;28;20241;-70
2023/01/21 05:56:38;;;;;;;11.73;5.77;;;1.70;99.90;;;;;;5101962;28;20248;-70
2023/01/21 05:59:04;;;;;;;13.37;6.50;;;1.60;99.90;;;;;;5102166;28;20689;-69
2023/01/21 06:01:29;;;;;;;14.90;6.27;;;1.60;99.90;;;;;;5067935;28;20227;-71
2023/01/21 06:03:55;;;;;;;14.93;6.50;;;1.60;99.90;;;;;;5073999;28;20689;-71
2023/01/21 06:06:21;;;;;;;11.47;6.80;;;1.60;99.90;;;;;;5064743;28;20564;-71
2023/01/21 06:08:46;;;;;;;9.87;5.67;;;1.50;99.90;;;;;;5036754;28;20302;-71
2023/01/21 06:11:12;;;;;;;10.40;5.53;;;1.40;99.90;;;;;;5082905;28;20230;-70
2023/01/21 06:13:38;;;;;;;10.57;5.80;;;1.40;99.90;;;;;;5105928;28;20222;-71
2023/01/21 06:16:04;;;;;;;20.03;6.07;;;1.40;99.90;;;;;;5091540;28;20213;-71
2023/01/21 06:18:29;;;;;;;16.33;7.00;;;1.50;99.90;;;;;;5088858;28;20309;-71
2023/01/21 06:20:59;;;;;;;13.17;6.33;;;1.50;99.90;;;;;;5068020;28;20451;-71
2023/01/21 06:23:24;;;;;;;12.80;5.97;;;1.50;99.90;;;;;;5071071;28;20214;-71
2023/01/21 06:25:50;;;;;;;11.00;5.47;;;1.50;99.90;;;;;;5085791;28;20517;-71
2023/01/21 06:28:16;;;;;;;12.30;5.40;;;1.50;99.90;;;;;;5088248;28;20219;-71
2023/01/21 06:30:41;;;;;;;13.67;6.87;;;1.60;99.90;;;;;;5088428;28;20230;-71
2023/01/21 06:33:07;;;;;;;12.57;6.90;;;1.60;99.90;;;;;;5085540;28;20310;-70
2023/01/21 06:35:33;;;;;;;12.37;5.50;;;1.60;99.90;;;;;;5078116;28;20756;-71
2023/01/21 06:37:58;;;;;;;13.93;6.90;;;1.60;99.90;;;;;;5083363;28;20214;-71
2023/01/21 06:40:24;;;;;;;13.33;6.23;;;1.60;99.90;;;;;;5084600;28;20222;-70
2023/01/21 06:42:50;;;;;;;10.90;6.40;;;1.60;99.90;;;;;;5070702;28;20222;-71
2023/01/21 06:45:16;;;;;;;16.00;6.53;;;1.60;99.90;;;;;;5069820;28;20230;-71
2023/01/21 06:47:43;;;;;;;22.90;7.63;;;1.60;99.90;;;;;;5068631;28;20691;-70
2023/01/21 06:50:11;;;;;;;16.53;8.07;;;1.60;99.90;;;;;;5085520;28;20489;-71
2023/01/21 06:52:36;;;;;;;16.00;7.60;;;1.60;99.90;;;;;;5050861;28;20453;-70
2023/01/21 06:55:03;;;;;;;15.37;7.23;;;1.60;99.90;;;;;;5063969;28;20472;-71
2023/01/21 06:57:29;;;;;;;9.93;4.93;;;1.60;99.90;;;;;;5107866;28;20213;-70
2023/01/21 06:59:55;;;;;;;9.20;6.40;;;1.50;99.90;;;;;;5103584;28;20465;-71
2023/01/21 07:02:20;;;;;;;14.80;7.50;;;1.50;99.90;;;;;;5081494;28;20467;-71
2023/01/21 07:04:49;;;;;;;9.93;5.77;;;1.50;99.90;;;;;;5069220;28;20206;-71
2023/01/21 07:07:14;;;;;;;14.80;6.93;;;1.50;99.90;;;;;;5076631;28;20226;-71
2023/01/21 07:09:40;;;;;;;10.27;5.23;;;1.50;99.90;;;;;;5085843;28;20452;-72
2023/01/21 07:12:06;;;;;;;11.73;5.87;;;1.50;99.90;;;;;;5093087;28;20222;-71
2023/01/21 07:14:31;;;;;;;10.13;6.23;;;1.40;99.90;;;;;;5098414;28;20230;-71
2023/01/21 07:16:57;;;;;;;12.00;5.40;;;1.30;99.90;;;;;;5077451;28;20218;-69
2023/01/21 07:19:23;;;;;;;9.10;5.30;;;1.20;99.90;;;;;;5092044;28;20226;-71
2023/01/21 07:21:49;;;;;;;11.37;6.40;;;1.30;99.90;;;;;;5087448;28;20226;-70
2023/01/21 07:24:15;;;;;;;12.93;5.33;;;1.20;99.90;;;;;;5082751;28;20276;-71
2023/01/21 07:26:42;;;;;;;10.57;5.80;;;1.20;99.90;;;;;;5090346;28;20452;-70
2023/01/21 07:29:08;;;;;;;11.90;6.03;;;1.30;99.90;;;;;;5084160;28;20456;-71
2023/01/21 07:31:33;;;;;;;12.50;6.40;;;1.30;99.90;;;;;;5086567;28;20449;-71
2023/01/21 07:33:59;;;;;;;16.50;7.10;;;1.40;99.90;;;;;;5090938;28;21018;-70
2023/01/21 07:36:25;;;;;;;12.87;7.67;;;1.30;99.90;;;;;;5084076;28;20227;-71
2023/01/21 07:38:52;;;;;;;19.53;7.50;;;1.40;99.90;;;;;;5077718;28;20458;-71
2023/01/21 07:41:17;;;;;;;13.20;7.33;;;1.40;99.90;;;;;;5080182;28;20460;-71
2023/01/21 07:43:45;;;;;;;21.00;7.33;;;1.30;99.90;;;;;;5072085;28;21054;-71
2023/01/21 07:46:10;;;;;;;12.50;7.70;;;1.30;99.90;;;;;;5084709;28;20215;-71
2023/01/21 07:48:36;;;;;;;15.20;7.47;;;1.30;99.90;;;;;;5073142;28;20444;-71
2023/01/21 07:51:02;;;;;;;11.07;6.50;;;1.30;99.90;;;;;;5089868;28;20226;-71
2023/01/21 07:53:28;;;;;;;11.40;6.20;;;1.20;99.90;;;;;;5086444;28;20225;-70
2023/01/21 07:55:53;;;;;;;12.93;6.30;;;1.20;99.90;;;;;;5074919;28;20231;-70
2023/01/21 07:58:19;;;;;;;11.30;6.00;;;1.10;99.90;;;;;;5091435;28;20213;-69
2023/01/21 08:00:44;;;;;;;7.60;4.63;;;1.00;99.90;;;;;;5081908;28;20222;-71
2023/01/21 08:03:10;;;;;;;61.83;50.33;;;1.00;99.90;;;;;;5082581;28;20242;-70
2023/01/21 08:05:36;;;;;;;22.00;17.07;;;1.00;99.90;;;;;;5082687;28;20218;-71
2023/01/21 08:08:01;;;;;;;9.77;6.10;;;1.00;99.90;;;;;;5082780;28;20225;-70
2023/01/21 08:10:27;;;;;;;11.30;5.23;;;0.90;99.90;;;;;;5079965;28;20211;-70
2023/01/21 08:12:52;;;;;;;10.10;5.10;;;0.80;99.90;;;;;;5070382;28;20710;-71
2023/01/21 08:15:18;;;;;;;9.23;5.17;;;0.80;99.90;;;;;;5087859;28;20237;-70
2023/01/21 08:17:46;;;;;;;8.20;4.17;;;0.70;99.90;;;;;;5095658;27;20222;-71
2023/01/21 08:20:12;;;;;;;11.40;4.60;;;0.70;99.90;;;;;;5094393;28;20314;-70
2023/01/21 08:22:38;;;;;;;11.70;4.60;;;0.60;99.90;;;;;;5085885;28;20492;-71
2023/01/21 08:25:05;;;;;;;9.53;3.90;;;0.60;99.90;;;;;;5082838;28;20460;-71
2023/01/21 08:27:31;;;;;;;6.50;4.63;;;0.60;99.90;;;;;;5065041;28;20279;-71
2023/01/21 08:29:57;;;;;;;7.23;4.93;;;0.60;99.90;;;;;;5073669;28;20485;-70
2023/01/21 08:32:22;;;;;;;6.47;3.70;;;0.60;99.90;;;;;;5079363;28;20488;-69
2023/01/21 08:34:49;;;;;;;9.73;4.20;;;0.60;99.90;;;;;;5062425;28;20215;-70
2023/01/21 08:37:15;;;;;;;11.17;4.33;;;0.40;99.90;;;;;;5079895;28;20218;-71
2023/01/21 08:39:41;;;;;;;10.90;5.37;;;0.50;99.90;;;;;;5086714;28;20467;-71
2023/01/21 08:42:06;;;;;;;10.40;5.17;;;0.50;99.90;;;;;;5092317;27;20466;-71
2023/01/21 08:44:34;;;;;;;17.30;5.87;;;0.60;99.90;;;;;;5083741;28;20301;-70
2023/01/21 08:47:00;;;;;;;16.90;8.27;;;0.60;99.90;;;;;;5088274;28;20225;-70
2023/01/21 08:49:25;;;;;;;16.27;6.80;;;0.60;99.90;;;;;;5078556;28;20475;-70
2023/01/21 08:51:51;;;;;;;16.53;8.47;;;0.50;99.90;;;;;;5081967;28;20277;-70
2023/01/21 08:54:17;;;;;;;16.80;7.90;;;0.40;99.90;;;;;;5066495;28;20207;-70
2023/01/21 08:56:42;;;;;;;19.60;8.03;;;0.40;99.90;;;;;;5078187;28;20223;-70
2023/01/21 08:59:20;;;;;;;16.90;8.10;;;0.50;99.90;;;;;;5073764;28;20258;-72
2023/01/21 09:01:46;;;;;;;14.87;7.23;;;0.40;99.90;;;;;;5084105;28;20232;-70
2023/01/21 09:04:12;;;;;;;11.67;5.93;;;0.40;99.90;;;;;;5059845;28;20548;-71
2023/01/21 09:06:37;;;;;;;9.47;5.00;;;0.40;99.90;;;;;;5070383;28;20215;-70
2023/01/21 09:09:03;;;;;;;11.17;5.90;;;0.40;99.90;;;;;;5068408;28;20218;-70
2023/01/21 09:11:29;;;;;;;15.87;5.97;;;0.40;99.90;;;;;;5086322;28;20339;-71
2023/01/21 09:13:59;;;;;;;10.67;5.47;;;0.50;99.90;;;;;;5059778;28;20223;-70
2023/01/21 09:16:25;;;;;;;12.33;6.60;;;0.50;99.90;;;;;;5090783;28;20472;-70
2023/01/21 09:18:50;;;;;;;11.13;6.07;;;0.50;99.90;;;;;;5081532;28;20456;-70
2023/01/21 09:21:16;;;;;;;8.60;4.93;;;0.40;99.90;;;;;;5089664;28;20666;-70
2023/01/21 09:23:43;;;;;;;13.93;5.80;;;0.40;99.90;;;;;;5086352;28;20215;-70
2023/01/21 09:26:22;;;;;;;11.57;5.57;;;0.50;99.90;;;;;;5083687;28;20210;-71
2023/01/21 09:28:56;;;;;;;14.57;5.20;;;0.50;99.90;;;;;;5091474;28;20968;-70
2023/01/21 09:31:24;;;;;;;7.47;5.23;;;0.50;99.90;;;;;;5070540;28;20564;-71
2023/01/21 09:33:53;;;;;;;8.47;4.73;;;0.50;99.90;;;;;;5085314;28;20450;-71
2023/01/21 09:36:22;;;;;;;10.80;5.40;;;0.50;99.90;;;;;;5074424;28;20464;-71
2023/01/21 09:38:49;;;;;;;11.40;5.90;;;0.50;99.90;;;;;;5074012;28;20461;-71
2023/01/21 09:41:20;;;;;;;8.47;6.20;;;0.50;99.90;;;;;;5094009;28;20459;-70
2023/01/21 09:44:02;;;;;;;11.30;5.63;;;0.60;99.90;;;;;;5054546;28;20823;-69
2023/01/21 09:47:04;;;;;;;19.53;6.20;;;0.60;99.90;;;;;;5067517;28;20453;-69
2023/01/21 09:49:37;;;;;;;7.10;4.07;;;0.50;99.90;;;;;;5092207;28;20848;-71
2023/01/21 09:52:21;;;;;;;8.47;4.90;;;0.50;99.90;;;;;;5059993;28;20568;-70
2023/01/21 09:54:46;;;;;;;11.73;5.20;;;0.50;99.90;;;;;;5064915;28;20921;-70
2023/01/21 09:57:27;;;;;;;7.03;5.10;;;0.60;99.90;;;;;;5066298;28;20497;-71
2023/01/21 10:00:12;;;;;;;13.07;5.83;;;0.50;99.90;;;;;;5051994;28;20242;-70
2023/01/21 10:03:05;;;;;;;7.30;5.40;;;0.50;99.90;;;;;;5063436;28;20458;-70
2023/01/21 10:06:07;;;;;;;11.00;4.27;;;0.50;99.90;;;;;;5067246;28;20470;-70
2023/01/21 10:08:40;;;;;;;8.90;4.60;;;0.50;99.90;;;;;;5063438;28;20455;-70
2023/01/21 10:11:24;;;;;;;9.70;5.63;;;0.60;99.90;;;;;;5065596;28;20465;-71
2023/01/21 10:14:04;;;;;;;19.50;5.97;;;0.60;99.90;;;;;;5080736;28;20450;-69
2023/01/21 10:16:51;;;;;;;6.37;3.97;;;0.70;99.90;;;;;;5066401;28;20457;-70
2023/01/21 10:19:23;;;;;;;13.50;5.20;;;0.70;99.90;;;;;;5063082;28;20465;-71
2023/01/21 10:21:57;;;;;;;6.73;3.83;;;0.70;99.90;;;;;;5069224;28;20564;-70
2023/01/21 10:24:31;;;;;;;7.00;4.30;;;0.70;99.90;;;;;;5080646;28;20571;-71
2023/01/21 10:26:57;;;;;;;8.93;4.83;;;0.80;99.90;;;;;;5074931;28;20510;-70
2023/01/21 10:29:24;;;;;;;10.47;5.43;;;0.80;99.90;;;;;;5056701;28;20555;-70
2023/01/21 10:31:58;;;;;;;6.87;3.90;;;0.90;99.90;;;;;;5092070;28;20458;-69
2023/01/21 10:34:27;;;;;;;8.73;4.53;;;0.90;99.90;;;;;;5058664;28;20457;-71
2023/01/21 10:37:00;;;;;;;9.97;5.10;;;1.00;99.90;;;;;;5075070;28;20470;-70
2023/01/21 10:39:50;;;;;;;8.00;5.13;;;0.90;99.90;;;;;;5057889;28;20523;-70
2023/01/21 10:42:46;;;;;;;8.73;5.80;;;0.90;99.90;;;;;;5069325;28;20457;-71
2023/01/21 10:45:52;;;;;;;15.77;6.40;;;0.90;99.90;;;;;;5065591;28;20461;-71
2023/01/21 10:48:34;;;;;;;9.53;5.27;;;1.00;99.90;;;;;;5071338;28;20457;-70
2023/01/21 10:51:23;;;;;;;12.80;6.73;;;1.00;99.90;;;;;;5070325;28;20464;-70
2023/01/21 10:54:05;;;;;;;8.20;5.13;;;1.10;99.90;;;;;;5080663;28;20462;-71
2023/01/21 10:57:02;;;;;;;17.60;6.47;;;1.10;99.90;;;;;;5081664;28;20514;-71
2023/01/21 10:59:31;;;;;;;11.37;6.20;;;1.10;99.90;;;;;;5092218;28;20459;-71
2023/01/21 11:02:12;;;;;;;11.13;6.00;;;1.20;99.90;;;;;;5078510;28;20886;-68
2023/01/21 11:04:41;;;;;;;6.20;4.80;;;1.30;99.90;;;;;;5088574;28;20484;-70
2023/01/21 11:07:10;;;;;;;9.03;5.07;;;1.20;99.90;;;;;;5082746;28;20452;-72
2023/01/21 11:09:44;;;;;;;10.10;6.13;;;1.30;99.90;;;;;;5073695;28;20453;-70
2023/01/21 11:12:12;;;;;;;9.47;4.73;;;1.30;99.90;;;;;;5082054;28;20456;-71
2023/01/21 11:14:38;;;;;;;9.37;5.10;;;1.30;99.90;;;;;;5070557;28;20512;-70
2023/01/21 11:17:04;;;;;;;12.93;5.90;;;1.30;99.90;;;;;;5098809;27;20963;-69
2023/01/21 11:19:30;;;;;;;13.53;6.57;;;1.40;99.90;;;;;;5089807;28;20276;-71
2023/01/21 11:22:20;;;;;;;12.53;6.67;;;1.40;99.90;;;;;;5091194;28;20489;-68
2023/01/21 11:24:49;;;;;;;16.80;7.70;;;1.40;99.90;;;;;;5090681;28;20214;-71
2023/01/21 11:27:27;;;;;;;16.70;7.50;;;1.50;99.90;;;;;;5071936;28;20487;-71
2023/01/21 11:29:52;;;;;;;10.10;5.90;;;1.40;99.90;;;;;;5081552;28;20471;-69
2023/01/21 11:32:21;;;;;;;14.77;6.10;;;1.40;99.90;;;;;;5084612;28;20456;-71
2023/01/21 11:34:50;;;;;;;9.80;4.90;;;1.40;99.90;;;;;;5092894;28;20215;-72
2023/01/21 11:37:28;;;;;;;8.53;5.73;;;1.40;99.90;;;;;;5063478;28;20460;-71
2023/01/21 11:39:57;;;;;;;11.80;6.03;;;1.40;99.90;;;;;;5082322;28;20480;-70
2023/01/21 11:42:24;;;;;;;11.20;6.43;;;1.30;99.90;;;;;;5079428;28;20477;-71
2023/01/21 11:44:51;;;;;;;10.40;4.90;;;1.30;99.90;;;;;;5084596;28;20487;-71
2023/01/21 11:47:35;;;;;;;9.00;5.33;;;1.30;99.90;;;;;;5063617;28;20507;-70
2023/01/21 11:50:10;;;;;;;11.77;6.50;;;1.30;99.90;;;;;;5072910;28;20449;-70
2023/01/21 11:52:35;;;;;;;11.67;5.70;;;1.30;99.90;;;;;;5046674;28;20469;-70
2023/01/21 11:55:01;;;;;;;11.77;6.70;;;1.40;99.90;;;;;;5081035;28;20476;-68
2023/01/21 11:57:30;;;;;;;12.43;5.63;;;1.40;99.90;;;;;;5087004;28;20222;-71
2023/01/21 12:00:14;;;;;;;11.73;7.03;;;1.40;99.90;;;;;;5084386;28;20517;-70
2023/01/21 12:02:45;;;;;;;17.00;9.20;;;1.40;99.90;;;;;;5063700;28;20445;-71
2023/01/21 12:05:18;;;;;;;19.30;9.50;;;1.40;99.90;;;;;;5084186;28;20453;-70
2023/01/21 12:07:48;;;;;;;15.30;8.27;;;1.40;99.90;;;;;;5073304;28;20466;-70
2023/01/21 12:10:34;;;;;;;15.20;6.97;;;1.40;99.90;;;;;;5068225;28;20449;-71
2023/01/21 12:13:21;;;;;;;12.60;7.30;;;1.40;99.90;;;;;;5093564;28;20552;-70
2023/01/21 12:16:13;;;;;;;11.53;5.80;;;1.40;99.90;;;;;;5061922;28;20461;-70
2023/01/21 12:18:57;;;;;;;10.00;6.10;;;1.40;99.90;;;;;;5062147;28;20457;-69
2023/01/21 12:21:54;;;;;;;9.50;5.60;;;1.40;99.90;;;;;;5083998;28;20485;-70
2023/01/21 12:24:41;;;;;;;9.33;6.47;;;1.40;99.90;;;;;;5078166;28;20464;-69
2023/01/21 12:27:16;;;;;;;10.20;5.57;;;1.40;99.90;;;;;;5076838;28;20506;-70
2023/01/21 12:30:05;;;;;;;8.53;5.30;;;1.40;99.90;;;;;;5067911;28;20448;-69
2023/01/21 12:32:41;;;;;;;11.57;6.13;;;1.40;99.90;;;;;;5069482;28;20465;-70
2023/01/21 12:35:28;;;;;;;13.27;6.77;;;1.30;99.90;;;;;;5070653;28;20560;-70
2023/01/21 12:38:09;;;;;;;10.67;5.47;;;1.30;99.90;;;;;;5075195;28;20465;-69
2023/01/21 12:40:50;;;;;;;10.43;5.37;;;1.40;99.90;;;;;;5066553;28;20882;-70
2023/01/21 12:43:24;;;;;;;8.80;5.73;;;1.40;99.90;;;;;;5068244;28;20502;-70
2023/01/21 12:46:14;;;;;;;9.80;4.83;;;1.40;99.90;;;;;;5063863;28;20451;-69
2023/01/21 12:48:49;;;;;;;6.50;4.03;;;1.30;99.90;;;;;;5077019;28;20454;-69
2023/01/21 12:51:31;;;;;;;12.27;6.00;;;1.30;99.90;;;;;;5085151;28;20453;-71
2023/01/21 12:54:19;;;;;;;8.60;5.00;;;1.40;99.90;;;;;;5088340;28;20441;-70
2023/01/21 12:57:02;;;;;;;12.10;5.63;;;1.30;99.90;;;;;;5079520;28;20453;-69
2023/01/21 12:59:57;;;;;;;8.80;4.60;;;1.30;99.90;;;;;;5087014;28;20500;-71
2023/01/21 13:02:39;;;;;;;10.83;4.83;;;1.30;99.90;;;;;;5081205;28;20498;-71
2023/01/21 13:05:05;;;;;;;6.93;4.97;;;1.30;99.90;;;;;;5081841;28;20515;-71
2023/01/21 13:07:55;;;;;;;7.70;5.60;;;1.30;99.90;;;;;;5077977;28;20461;-71
2023/01/21 13:10:34;;;;;;;15.33;6.70;;;1.30;99.90;;;;;;5076856;28;20277;-71
2023/01/21 13:13:24;;;;;;;13.83;6.03;;;1.30;99.90;;;;;;5080893;28;20461;-70